WIF51G EKVG-ENBR
Flight info
| Callsign | WIF51G |
|---|---|
| Flight time | N/A |
| Altitude | 25000 |
| Route | ODEVA DCT VALDI/N0320F250 DCT ETNOR |
| Aircraft | DH8D/M-SDE2E3FGRY/H |
Departure
| Time | 2026-04-29 17:14 |
|---|---|
| Airport | Vágar Airport (EKVG) |
Arrival
| Time | N/A |
|---|---|
| Airport | Bergen Airport, Flesland (ENBR) |
| Time | Latitude | Longitude | Altitude | Speed | Heading |
|---|---|---|---|---|---|
| 2026-04-29 16:57 | 62.06684 | -7.27952 | 289 ft | 0 kts | 28° |
| 2026-04-29 17:09 | 62.06677 | -7.27960 | 288 ft | 4 kts | 28° |
| 2026-04-29 17:09 | 62.06648 | -7.27970 | 288 ft | 4 kts | 320° |
| 2026-04-29 17:09 | 62.06638 | -7.27935 | 289 ft | 0 kts | 292° |
| 2026-04-29 17:10 | 62.06641 | -7.27948 | 288 ft | 4 kts | 291° |
| 2026-04-29 17:10 | 62.06649 | -7.28057 | 288 ft | 10 kts | 248° |
| 2026-04-29 17:10 | 62.06576 | -7.28090 | 289 ft | 12 kts | 186° |
| 2026-04-29 17:11 | 62.06497 | -7.28148 | 290 ft | 10 kts | 210° |
| 2026-04-29 17:11 | 62.06501 | -7.28295 | 289 ft | 16 kts | 298° |
| 2026-04-29 17:11 | 62.06565 | -7.28555 | 285 ft | 20 kts | 297° |
| 2026-04-29 17:11 | 62.06631 | -7.28831 | 279 ft | 21 kts | 296° |
| 2026-04-29 17:12 | 62.06696 | -7.29083 | 277 ft | 13 kts | 297° |
| 2026-04-29 17:12 | 62.06709 | -7.29222 | 277 ft | 4 kts | 306° |
| 2026-04-29 17:12 | 62.06730 | -7.29198 | 277 ft | 5 kts | 109° |
| 2026-04-29 17:12 | 62.06716 | -7.29162 | 277 ft | 3 kts | 119° |
| 2026-04-29 17:13 | 62.06715 | -7.29158 | 277 ft | 0 kts | 118° |
| 2026-04-29 17:13 | 62.06591 | -7.28660 | 283 ft | 84 kts | 119° |
| 2026-04-29 17:13 | 62.06217 | -7.27117 | 323 ft | 141 kts | 113° |
| 2026-04-29 17:13 | 62.05785 | -7.25165 | 802 ft | 151 kts | 125° |
| 2026-04-29 17:14 | 62.05267 | -7.23205 | 1404 ft | 157 kts | 131° |
| 2026-04-29 17:14 | 62.04717 | -7.21223 | 2094 ft | 160 kts | 130° |
| 2026-04-29 17:14 | 62.04157 | -7.19134 | 2616 ft | 174 kts | 129° |
| 2026-04-29 17:14 | 62.03543 | -7.16787 | 2954 ft | 188 kts | 128° |
| 2026-04-29 17:15 | 62.02895 | -7.14258 | 3279 ft | 205 kts | 127° |
| 2026-04-29 17:15 | 62.02206 | -7.11520 | 3713 ft | 214 kts | 126° |
| 2026-04-29 17:15 | 62.01509 | -7.08706 | 4278 ft | 217 kts | 126° |
| 2026-04-29 17:15 | 62.00800 | -7.05847 | 4835 ft | 221 kts | 125° |
| 2026-04-29 17:16 | 62.00273 | -7.02748 | 5403 ft | 229 kts | 110° |
| 2026-04-29 17:16 | 61.99954 | -6.99424 | 5973 ft | 233 kts | 108° |
| 2026-04-29 17:16 | 61.99647 | -6.96039 | 6586 ft | 233 kts | 108° |
| 2026-04-29 17:16 | 61.99347 | -6.92659 | 7116 ft | 237 kts | 108° |
| 2026-04-29 17:17 | 61.99047 | -6.89233 | 7726 ft | 237 kts | 108° |
| 2026-04-29 17:17 | 61.98744 | -6.85775 | 8248 ft | 241 kts | 108° |
| 2026-04-29 17:17 | 61.98436 | -6.82241 | 8833 ft | 244 kts | 108° |
| 2026-04-29 17:17 | 61.98129 | -6.78710 | 9379 ft | 246 kts | 108° |
| 2026-04-29 17:18 | 61.97817 | -6.75137 | 9912 ft | 250 kts | 108° |
| 2026-04-29 17:18 | 61.97504 | -6.71529 | 10501 ft | 250 kts | 108° |
| 2026-04-29 17:18 | 61.97187 | -6.67889 | 11037 ft | 254 kts | 108° |
| 2026-04-29 17:18 | 61.96864 | -6.64187 | 11579 ft | 257 kts | 108° |
| 2026-04-29 17:19 | 61.96537 | -6.60450 | 12143 ft | 259 kts | 108° |
| 2026-04-29 17:19 | 61.96209 | -6.56702 | 12700 ft | 261 kts | 109° |
| 2026-04-29 17:19 | 61.95879 | -6.52959 | 13213 ft | 264 kts | 108° |
| 2026-04-29 17:19 | 61.95541 | -6.49130 | 13716 ft | 267 kts | 109° |
| 2026-04-29 17:20 | 61.95194 | -6.45221 | 14215 ft | 271 kts | 109° |
| 2026-04-29 17:20 | 61.94853 | -6.41353 | 14765 ft | 271 kts | 108° |
| 2026-04-29 17:20 | 61.94505 | -6.37428 | 15287 ft | 271 kts | 108° |
| 2026-04-29 17:20 | 61.94153 | -6.33491 | 15723 ft | 275 kts | 109° |
| 2026-04-29 17:21 | 61.93797 | -6.29501 | 16204 ft | 276 kts | 109° |
| 2026-04-29 17:21 | 61.93441 | -6.25534 | 16664 ft | 276 kts | 109° |
| 2026-04-29 17:21 | 61.93079 | -6.21510 | 17093 ft | 278 kts | 109° |
| 2026-04-29 17:21 | 61.92714 | -6.17487 | 17484 ft | 281 kts | 109° |
| 2026-04-29 17:22 | 61.92350 | -6.13471 | 17917 ft | 281 kts | 109° |
| 2026-04-29 17:22 | 61.91975 | -6.09358 | 18268 ft | 284 kts | 109° |
| 2026-04-29 17:22 | 61.91603 | -6.05271 | 18692 ft | 285 kts | 109° |
| 2026-04-29 17:22 | 61.91227 | -6.01175 | 19052 ft | 286 kts | 108° |
| 2026-04-29 17:23 | 61.90844 | -5.97005 | 19429 ft | 287 kts | 108° |
| 2026-04-29 17:23 | 61.90465 | -5.92895 | 19761 ft | 289 kts | 108° |
| 2026-04-29 17:23 | 61.90077 | -5.88724 | 20081 ft | 291 kts | 108° |
| 2026-04-29 17:23 | 61.89685 | -5.84498 | 20462 ft | 290 kts | 108° |
| 2026-04-29 17:24 | 61.89292 | -5.80284 | 20745 ft | 293 kts | 108° |
| 2026-04-29 17:24 | 61.88896 | -5.76063 | 21036 ft | 295 kts | 108° |
| 2026-04-29 17:24 | 61.88498 | -5.71827 | 21335 ft | 296 kts | 108° |
| 2026-04-29 17:24 | 61.88095 | -5.67549 | 21630 ft | 296 kts | 108° |
| 2026-04-29 17:25 | 61.87686 | -5.63234 | 21851 ft | 299 kts | 107° |
| 2026-04-29 17:25 | 61.87281 | -5.58965 | 22180 ft | 298 kts | 107° |
| 2026-04-29 17:25 | 61.86871 | -5.54662 | 22411 ft | 300 kts | 107° |
| 2026-04-29 17:25 | 61.86459 | -5.50351 | 22673 ft | 300 kts | 107° |
| 2026-04-29 17:26 | 61.86044 | -5.46028 | 22892 ft | 301 kts | 107° |
| 2026-04-29 17:26 | 61.85628 | -5.41720 | 23122 ft | 303 kts | 107° |
| 2026-04-29 17:26 | 61.85204 | -5.37330 | 23359 ft | 303 kts | 107° |
| 2026-04-29 17:26 | 61.84786 | -5.33017 | 23571 ft | 303 kts | 108° |
| 2026-04-29 17:27 | 61.84355 | -5.28595 | 23767 ft | 305 kts | 107° |
| 2026-04-29 17:27 | 61.83932 | -5.24271 | 23971 ft | 305 kts | 107° |
| 2026-04-29 17:27 | 61.83500 | -5.19870 | 24139 ft | 306 kts | 107° |
| 2026-04-29 17:27 | 61.83069 | -5.15494 | 24336 ft | 307 kts | 107° |
| 2026-04-29 17:28 | 61.82629 | -5.11044 | 24509 ft | 307 kts | 107° |
| 2026-04-29 17:28 | 61.82193 | -5.06644 | 24645 ft | 309 kts | 107° |
| 2026-04-29 17:28 | 61.81749 | -5.02187 | 24814 ft | 310 kts | 107° |
| 2026-04-29 17:28 | 61.81307 | -4.97762 | 24970 ft | 310 kts | 107° |
| 2026-04-29 17:29 | 61.80862 | -4.93327 | 25099 ft | 312 kts | 107° |
| 2026-04-29 17:29 | 61.80411 | -4.88844 | 25251 ft | 313 kts | 107° |
| 2026-04-29 17:29 | 61.79951 | -4.84294 | 25323 ft | 318 kts | 107° |
| 2026-04-29 17:29 | 61.79637 | -4.81213 | 25341 ft | 321 kts | 107° |
| 2026-04-29 17:30 | 61.79006 | -4.75024 | 25347 ft | 330 kts | 107° |
| 2026-04-29 17:30 | 61.78517 | -4.70249 | 25351 ft | 335 kts | 107° |
| 2026-04-29 17:30 | 61.78021 | -4.65419 | 25350 ft | 340 kts | 106° |
| 2026-04-29 17:30 | 61.77517 | -4.60515 | 25350 ft | 344 kts | 106° |
| 2026-04-29 17:31 | 61.77005 | -4.55557 | 25350 ft | 348 kts | 106° |
| 2026-04-29 17:31 | 61.76483 | -4.50522 | 25346 ft | 351 kts | 106° |
| 2026-04-29 17:31 | 61.75964 | -4.45525 | 25341 ft | 353 kts | 106° |
| 2026-04-29 17:31 | 61.75435 | -4.40448 | 25343 ft | 353 kts | 106° |
| 2026-04-29 17:32 | 61.74910 | -4.35426 | 25342 ft | 353 kts | 106° |
| 2026-04-29 17:32 | 61.74383 | -4.30417 | 25345 ft | 352 kts | 107° |
| 2026-04-29 17:32 | 61.73854 | -4.25396 | 25349 ft | 352 kts | 107° |
| 2026-04-29 17:32 | 61.73323 | -4.20390 | 25350 ft | 352 kts | 107° |
| 2026-04-29 17:33 | 61.72793 | -4.15406 | 25359 ft | 351 kts | 107° |
| 2026-04-29 17:33 | 61.72251 | -4.10332 | 25363 ft | 351 kts | 107° |
| 2026-04-29 17:33 | 61.71721 | -4.05389 | 25364 ft | 351 kts | 107° |
| 2026-04-29 17:33 | 61.71179 | -4.00352 | 25366 ft | 351 kts | 107° |
| 2026-04-29 17:34 | 61.70641 | -3.95378 | 25364 ft | 351 kts | 107° |
| 2026-04-29 17:34 | 61.70099 | -3.90383 | 25364 ft | 352 kts | 107° |
| 2026-04-29 17:34 | 61.69554 | -3.85376 | 25362 ft | 352 kts | 107° |
| 2026-04-29 17:34 | 61.69009 | -3.80389 | 25359 ft | 352 kts | 107° |
| 2026-04-29 17:35 | 61.68085 | -3.71976 | 25358 ft | 352 kts | 107° |
| 2026-04-29 17:35 | 61.67352 | -3.65345 | 25357 ft | 352 kts | 107° |
| 2026-04-29 17:35 | 61.66799 | -3.60359 | 25354 ft | 352 kts | 107° |
| 2026-04-29 17:36 | 61.66245 | -3.55383 | 25356 ft | 352 kts | 107° |
| 2026-04-29 17:36 | 61.65685 | -3.50371 | 25359 ft | 351 kts | 107° |
| 2026-04-29 17:36 | 61.65119 | -3.45322 | 25358 ft | 351 kts | 106° |
| 2026-04-29 17:36 | 61.64557 | -3.40330 | 25361 ft | 351 kts | 106° |
| 2026-04-29 17:37 | 61.63996 | -3.35357 | 25366 ft | 351 kts | 106° |
| 2026-04-29 17:37 | 61.63433 | -3.30388 | 25367 ft | 351 kts | 107° |
| 2026-04-29 17:37 | 61.62868 | -3.25429 | 25369 ft | 351 kts | 107° |
| 2026-04-29 17:37 | 61.62299 | -3.20440 | 25372 ft | 351 kts | 107° |
| 2026-04-29 17:38 | 61.61730 | -3.15476 | 25370 ft | 350 kts | 107° |
| 2026-04-29 17:38 | 61.61158 | -3.10502 | 25368 ft | 350 kts | 107° |
| 2026-04-29 17:38 | 61.60592 | -3.05595 | 25370 ft | 350 kts | 107° |
| 2026-04-29 17:38 | 61.60017 | -3.00630 | 25369 ft | 350 kts | 107° |
| 2026-04-29 17:39 | 61.59439 | -2.95650 | 25368 ft | 350 kts | 107° |
| 2026-04-29 17:39 | 61.58861 | -2.90700 | 25370 ft | 350 kts | 107° |
| 2026-04-29 17:39 | 61.58276 | -2.85696 | 25368 ft | 350 kts | 107° |
| 2026-04-29 17:39 | 61.57698 | -2.80773 | 25373 ft | 350 kts | 107° |
| 2026-04-29 17:40 | 61.57118 | -2.75849 | 25373 ft | 350 kts | 107° |
| 2026-04-29 17:40 | 61.56534 | -2.70910 | 25372 ft | 350 kts | 107° |
| 2026-04-29 17:40 | 61.55951 | -2.65993 | 25374 ft | 350 kts | 107° |
| 2026-04-29 17:40 | 61.55362 | -2.61045 | 25372 ft | 350 kts | 107° |
| 2026-04-29 17:41 | 61.54768 | -2.56076 | 25373 ft | 350 kts | 107° |
| 2026-04-29 17:41 | 61.54183 | -2.51187 | 25371 ft | 350 kts | 107° |
| 2026-04-29 17:41 | 61.53579 | -2.46162 | 25375 ft | 350 kts | 107° |
| 2026-04-29 17:41 | 61.52982 | -2.41212 | 25377 ft | 350 kts | 107° |
| 2026-04-29 17:42 | 61.52388 | -2.36312 | 25381 ft | 350 kts | 107° |
| 2026-04-29 17:42 | 61.51792 | -2.31407 | 25383 ft | 349 kts | 107° |
| 2026-04-29 17:42 | 61.51191 | -2.26473 | 25385 ft | 349 kts | 107° |
| 2026-04-29 17:42 | 61.50591 | -2.21570 | 25386 ft | 349 kts | 107° |
| 2026-04-29 17:43 | 61.49992 | -2.16685 | 25389 ft | 349 kts | 107° |
| 2026-04-29 17:43 | 61.49388 | -2.11782 | 25389 ft | 349 kts | 107° |
| 2026-04-29 17:43 | 61.48783 | -2.06886 | 25388 ft | 349 kts | 107° |
| 2026-04-29 17:43 | 61.48174 | -2.01969 | 25387 ft | 349 kts | 107° |
| 2026-04-29 17:44 | 61.47564 | -1.97056 | 25388 ft | 349 kts | 107° |
| 2026-04-29 17:44 | 61.46944 | -1.92089 | 25390 ft | 349 kts | 107° |
| 2026-04-29 17:44 | 61.46331 | -1.87194 | 25395 ft | 349 kts | 107° |
| 2026-04-29 17:44 | 61.45715 | -1.82279 | 25393 ft | 349 kts | 107° |
| 2026-04-29 17:45 | 61.45101 | -1.77412 | 25392 ft | 349 kts | 107° |
| 2026-04-29 17:45 | 61.44481 | -1.72501 | 25395 ft | 349 kts | 107° |
| 2026-04-29 17:45 | 61.43864 | -1.67635 | 25392 ft | 349 kts | 107° |
| 2026-04-29 17:45 | 61.43242 | -1.62746 | 25395 ft | 349 kts | 107° |
| 2026-04-29 17:46 | 61.42622 | -1.57883 | 25396 ft | 349 kts | 107° |
| 2026-04-29 17:46 | 61.41996 | -1.52997 | 25398 ft | 349 kts | 107° |
| 2026-04-29 17:46 | 61.41372 | -1.48132 | 25400 ft | 349 kts | 107° |
| 2026-04-29 17:46 | 61.40737 | -1.43202 | 25403 ft | 349 kts | 107° |
| 2026-04-29 17:47 | 61.40108 | -1.38335 | 25401 ft | 349 kts | 107° |
| 2026-04-29 17:47 | 61.39468 | -1.33402 | 25406 ft | 349 kts | 108° |
| 2026-04-29 17:47 | 61.38837 | -1.28550 | 25408 ft | 348 kts | 107° |
| 2026-04-29 17:47 | 61.38195 | -1.23624 | 25411 ft | 348 kts | 107° |
| 2026-04-29 17:48 | 61.37563 | -1.18795 | 25412 ft | 348 kts | 107° |
| 2026-04-29 17:48 | 61.36929 | -1.13968 | 25409 ft | 348 kts | 107° |
| 2026-04-29 17:48 | 61.36291 | -1.09125 | 25409 ft | 348 kts | 108° |
| 2026-04-29 17:48 | 61.35647 | -1.04251 | 25412 ft | 348 kts | 108° |
| 2026-04-29 17:49 | 61.35009 | -0.99432 | 25413 ft | 348 kts | 107° |
| 2026-04-29 17:49 | 61.34365 | -0.94593 | 25420 ft | 348 kts | 107° |
| 2026-04-29 17:49 | 61.33712 | -0.89696 | 25414 ft | 348 kts | 107° |
| 2026-04-29 17:49 | 61.33066 | -0.84863 | 25419 ft | 348 kts | 107° |
| 2026-04-29 17:50 | 61.32417 | -0.80022 | 25421 ft | 348 kts | 107° |
| 2026-04-29 17:50 | 61.31764 | -0.75172 | 25422 ft | 348 kts | 107° |
| 2026-04-29 17:50 | 61.31110 | -0.70327 | 25420 ft | 348 kts | 107° |
| 2026-04-29 17:50 | 61.30455 | -0.65489 | 25417 ft | 348 kts | 107° |
| 2026-04-29 17:51 | 61.29800 | -0.60662 | 25419 ft | 348 kts | 107° |
| 2026-04-29 17:51 | 61.29148 | -0.55875 | 25416 ft | 349 kts | 107° |
| 2026-04-29 17:51 | 61.28482 | -0.51004 | 25418 ft | 348 kts | 107° |
| 2026-04-29 17:51 | 61.27825 | -0.46209 | 25419 ft | 348 kts | 107° |
| 2026-04-29 17:52 | 61.27159 | -0.41362 | 25421 ft | 348 kts | 107° |
| 2026-04-29 17:52 | 61.26714 | -0.38138 | 25418 ft | 348 kts | 107° |
| 2026-04-29 17:52 | 61.25827 | -0.31720 | 25412 ft | 348 kts | 108° |
| 2026-04-29 17:52 | 61.25160 | -0.26906 | 25409 ft | 348 kts | 108° |
| 2026-04-29 17:53 | 61.24488 | -0.22079 | 25410 ft | 348 kts | 108° |
| 2026-04-29 17:53 | 61.23814 | -0.17248 | 25412 ft | 348 kts | 108° |
| 2026-04-29 17:53 | 61.23148 | -0.12487 | 25410 ft | 348 kts | 108° |
| 2026-04-29 17:53 | 61.22467 | -0.07630 | 25408 ft | 348 kts | 108° |
| 2026-04-29 17:54 | 61.21796 | -0.02869 | 25413 ft | 348 kts | 108° |
| 2026-04-29 17:54 | 61.21121 | 0.01939 | 25417 ft | 348 kts | 107° |
| 2026-04-29 17:54 | 61.20473 | 0.06793 | 25414 ft | 348 kts | 107° |
| 2026-04-29 17:54 | 61.19842 | 0.11585 | 25417 ft | 348 kts | 106° |
| 2026-04-29 17:55 | 61.19202 | 0.16429 | 25421 ft | 348 kts | 106° |
| 2026-04-29 17:55 | 61.18559 | 0.21270 | 25417 ft | 348 kts | 106° |
| 2026-04-29 17:55 | 61.17921 | 0.26050 | 25424 ft | 349 kts | 106° |
| 2026-04-29 17:55 | 61.17270 | 0.30906 | 25424 ft | 349 kts | 106° |
| 2026-04-29 17:56 | 61.16622 | 0.35727 | 25418 ft | 349 kts | 106° |
| 2026-04-29 17:56 | 61.15980 | 0.40489 | 25426 ft | 349 kts | 106° |
| 2026-04-29 17:56 | 61.15326 | 0.45316 | 25427 ft | 349 kts | 106° |
| 2026-04-29 17:56 | 61.14668 | 0.50164 | 25426 ft | 349 kts | 107° |
| 2026-04-29 17:57 | 61.14014 | 0.54965 | 25434 ft | 349 kts | 106° |
| 2026-04-29 17:57 | 61.13356 | 0.59770 | 25431 ft | 349 kts | 106° |
| 2026-04-29 17:57 | 61.12692 | 0.64614 | 25436 ft | 349 kts | 106° |
| 2026-04-29 17:57 | 61.12256 | 0.67785 | 25429 ft | 349 kts | 107° |
| 2026-04-29 17:58 | 61.11369 | 0.74221 | 25430 ft | 349 kts | 107° |
| 2026-04-29 17:58 | 61.10708 | 0.78993 | 25431 ft | 349 kts | 107° |
| 2026-04-29 17:58 | 61.10036 | 0.83837 | 25439 ft | 349 kts | 107° |
| 2026-04-29 17:58 | 61.09370 | 0.88619 | 25443 ft | 349 kts | 107° |
| 2026-04-29 17:59 | 61.08696 | 0.93447 | 25439 ft | 349 kts | 107° |
| 2026-04-29 17:59 | 61.08027 | 0.98222 | 25440 ft | 349 kts | 107° |
| 2026-04-29 17:59 | 61.07319 | 1.02983 | 25434 ft | 349 kts | 111° |
| 2026-04-29 17:59 | 61.06368 | 1.07537 | 25447 ft | 348 kts | 116° |
| 2026-04-29 18:00 | 61.05338 | 1.12101 | 25447 ft | 348 kts | 116° |
| 2026-04-29 18:00 | 61.04328 | 1.16582 | 25441 ft | 348 kts | 116° |
| 2026-04-29 18:00 | 61.03316 | 1.21082 | 25443 ft | 348 kts | 116° |
| 2026-04-29 18:00 | 61.02305 | 1.25589 | 25449 ft | 348 kts | 116° |
| 2026-04-29 18:01 | 61.01284 | 1.30142 | 25444 ft | 348 kts | 115° |
| 2026-04-29 18:01 | 61.00281 | 1.34620 | 25445 ft | 348 kts | 115° |
| 2026-04-29 18:01 | 60.99267 | 1.39144 | 25447 ft | 348 kts | 115° |
| 2026-04-29 18:01 | 60.98254 | 1.43656 | 25453 ft | 348 kts | 115° |
| 2026-04-29 18:02 | 60.97248 | 1.48135 | 25453 ft | 348 kts | 115° |
| 2026-04-29 18:02 | 60.96237 | 1.52631 | 25454 ft | 348 kts | 115° |
| 2026-04-29 18:02 | 60.95214 | 1.57172 | 25457 ft | 348 kts | 115° |
| 2026-04-29 18:02 | 60.94207 | 1.61631 | 25455 ft | 348 kts | 115° |
| 2026-04-29 18:03 | 60.93185 | 1.66155 | 25462 ft | 348 kts | 116° |
| 2026-04-29 18:03 | 60.92175 | 1.70608 | 25464 ft | 348 kts | 116° |
| 2026-04-29 18:03 | 60.91153 | 1.75110 | 25463 ft | 348 kts | 116° |
| 2026-04-29 18:03 | 60.90125 | 1.79633 | 25465 ft | 348 kts | 116° |
| 2026-04-29 18:04 | 60.89104 | 1.84112 | 25460 ft | 348 kts | 116° |
| 2026-04-29 18:04 | 60.88090 | 1.88552 | 25469 ft | 348 kts | 116° |
| 2026-04-29 18:04 | 60.87062 | 1.93045 | 25463 ft | 348 kts | 116° |
| 2026-04-29 18:04 | 60.86034 | 1.97529 | 25465 ft | 348 kts | 116° |
| 2026-04-29 18:05 | 60.85008 | 2.01991 | 25467 ft | 348 kts | 116° |
| 2026-04-29 18:05 | 60.83981 | 2.06451 | 25467 ft | 348 kts | 116° |
| 2026-04-29 18:05 | 60.82947 | 2.10933 | 25466 ft | 348 kts | 116° |
| 2026-04-29 18:05 | 60.81910 | 2.15417 | 25463 ft | 348 kts | 116° |
| 2026-04-29 18:06 | 60.80888 | 2.19828 | 25468 ft | 348 kts | 116° |
| 2026-04-29 18:06 | 60.79843 | 2.24328 | 25470 ft | 349 kts | 116° |
| 2026-04-29 18:06 | 60.78804 | 2.28791 | 25474 ft | 349 kts | 116° |
| 2026-04-29 18:06 | 60.77768 | 2.33238 | 25472 ft | 349 kts | 116° |
| 2026-04-29 18:07 | 60.76727 | 2.37693 | 25472 ft | 349 kts | 116° |
| 2026-04-29 18:07 | 60.75681 | 2.42159 | 25473 ft | 349 kts | 115° |
| 2026-04-29 18:07 | 60.74630 | 2.46644 | 25475 ft | 349 kts | 115° |
| 2026-04-29 18:07 | 60.73596 | 2.51040 | 25473 ft | 349 kts | 115° |
| 2026-04-29 18:08 | 60.72538 | 2.55534 | 25467 ft | 349 kts | 115° |
| 2026-04-29 18:08 | 60.71499 | 2.59931 | 25471 ft | 349 kts | 115° |
| 2026-04-29 18:08 | 60.70440 | 2.64411 | 25467 ft | 349 kts | 115° |
| 2026-04-29 18:08 | 60.69379 | 2.68884 | 25468 ft | 349 kts | 116° |
| 2026-04-29 18:09 | 60.68328 | 2.73310 | 25466 ft | 349 kts | 116° |
| 2026-04-29 18:09 | 60.67272 | 2.77746 | 25469 ft | 349 kts | 116° |
| 2026-04-29 18:09 | 60.66219 | 2.82161 | 25468 ft | 349 kts | 116° |
| 2026-04-29 18:09 | 60.65151 | 2.86633 | 25468 ft | 350 kts | 116° |
| 2026-04-29 18:10 | 60.64096 | 2.91038 | 25470 ft | 350 kts | 116° |
| 2026-04-29 18:10 | 60.63030 | 2.95479 | 25470 ft | 350 kts | 116° |
| 2026-04-29 18:10 | 60.61966 | 2.99904 | 25472 ft | 350 kts | 116° |
| 2026-04-29 18:10 | 60.60900 | 3.04329 | 25469 ft | 350 kts | 116° |
| 2026-04-29 18:11 | 60.59822 | 3.08793 | 25464 ft | 350 kts | 116° |
| 2026-04-29 18:11 | 60.58754 | 3.13209 | 25467 ft | 351 kts | 116° |
| 2026-04-29 18:11 | 60.57682 | 3.17634 | 25469 ft | 351 kts | 116° |
| 2026-04-29 18:11 | 60.56598 | 3.22093 | 25468 ft | 351 kts | 116° |
| 2026-04-29 18:12 | 60.55526 | 3.26500 | 25466 ft | 350 kts | 116° |
| 2026-04-29 18:12 | 60.54459 | 3.30875 | 25470 ft | 350 kts | 116° |
| 2026-04-29 18:12 | 60.53376 | 3.35307 | 25472 ft | 350 kts | 115° |
| 2026-04-29 18:12 | 60.52296 | 3.39719 | 25474 ft | 350 kts | 116° |
| 2026-04-29 18:13 | 60.51213 | 3.44134 | 25267 ft | 354 kts | 115° |
| 2026-04-29 18:13 | 60.50124 | 3.48568 | 24827 ft | 353 kts | 115° |
| 2026-04-29 18:13 | 60.49033 | 3.53012 | 24336 ft | 352 kts | 115° |
| 2026-04-29 18:13 | 60.47951 | 3.57404 | 23835 ft | 349 kts | 115° |
| 2026-04-29 18:14 | 60.46871 | 3.61782 | 23342 ft | 348 kts | 115° |
| 2026-04-29 18:14 | 60.45795 | 3.66130 | 22847 ft | 346 kts | 115° |
| 2026-04-29 18:14 | 60.44734 | 3.70408 | 22357 ft | 344 kts | 116° |
| 2026-04-29 18:14 | 60.43660 | 3.74716 | 21864 ft | 342 kts | 116° |
| 2026-04-29 18:15 | 60.42578 | 3.78969 | 21381 ft | 341 kts | 116° |
| 2026-04-29 18:15 | 60.41513 | 3.83235 | 20894 ft | 336 kts | 115° |
| 2026-04-29 18:15 | 60.40487 | 3.87367 | 20570 ft | 329 kts | 115° |
| 2026-04-29 18:15 | 60.39463 | 3.91460 | 20499 ft | 328 kts | 115° |
| 2026-04-29 18:16 | 60.38438 | 3.95545 | 20484 ft | 328 kts | 115° |
| 2026-04-29 18:16 | 60.37405 | 3.99650 | 20481 ft | 327 kts | 115° |
| 2026-04-29 18:16 | 60.36368 | 4.03765 | 20479 ft | 326 kts | 115° |
| 2026-04-29 18:16 | 60.35345 | 4.07817 | 20479 ft | 326 kts | 115° |
| 2026-04-29 18:17 | 60.34318 | 4.11875 | 20478 ft | 326 kts | 115° |
| 2026-04-29 18:17 | 60.33290 | 4.15930 | 20478 ft | 326 kts | 115° |
| 2026-04-29 18:17 | 60.32267 | 4.19958 | 20476 ft | 326 kts | 115° |
| 2026-04-29 18:17 | 60.31233 | 4.24022 | 20360 ft | 327 kts | 115° |
| 2026-04-29 18:18 | 60.30205 | 4.28073 | 19772 ft | 324 kts | 115° |
| 2026-04-29 18:18 | 60.29180 | 4.32107 | 19144 ft | 321 kts | 115° |
| 2026-04-29 18:18 | 60.28178 | 4.36039 | 18528 ft | 319 kts | 115° |
| 2026-04-29 18:18 | 60.27180 | 4.39948 | 17908 ft | 316 kts | 115° |
| 2026-04-29 18:19 | 60.26177 | 4.43863 | 17286 ft | 314 kts | 115° |
| 2026-04-29 18:19 | 60.25176 | 4.47760 | 16660 ft | 312 kts | 115° |
| 2026-04-29 18:19 | 60.24200 | 4.51553 | 16048 ft | 310 kts | 115° |
| 2026-04-29 18:19 | 60.23213 | 4.55383 | 15425 ft | 308 kts | 115° |
| 2026-04-29 18:20 | 60.22240 | 4.59150 | 14810 ft | 306 kts | 115° |
| 2026-04-29 18:20 | 60.21267 | 4.62907 | 14190 ft | 304 kts | 116° |
| 2026-04-29 18:20 | 60.20289 | 4.66680 | 13568 ft | 303 kts | 117° |
| 2026-04-29 18:20 | 60.19333 | 4.70358 | 12950 ft | 301 kts | 117° |
| 2026-04-29 18:21 | 60.18369 | 4.74064 | 12328 ft | 298 kts | 117° |
| 2026-04-29 18:21 | 60.17425 | 4.77686 | 11810 ft | 293 kts | 117° |
| 2026-04-29 18:21 | 60.16482 | 4.81297 | 11305 ft | 287 kts | 117° |
| 2026-04-29 18:21 | 60.15576 | 4.84766 | 10957 ft | 276 kts | 117° |
| 2026-04-29 18:22 | 60.14710 | 4.88075 | 10688 ft | 265 kts | 117° |
| 2026-04-29 18:22 | 60.13859 | 4.91321 | 10159 ft | 266 kts | 117° |
| 2026-04-29 18:22 | 60.13003 | 4.94586 | 9550 ft | 268 kts | 117° |
| 2026-04-29 18:22 | 60.12135 | 4.97887 | 8939 ft | 270 kts | 117° |
| 2026-04-29 18:23 | 60.11262 | 5.01199 | 8310 ft | 271 kts | 117° |
| 2026-04-29 18:23 | 60.10388 | 5.04508 | 7713 ft | 270 kts | 116° |
| 2026-04-29 18:23 | 60.09530 | 5.07757 | 7264 ft | 264 kts | 116° |
| 2026-04-29 18:23 | 60.08685 | 5.10947 | 6824 ft | 258 kts | 116° |
| 2026-04-29 18:24 | 60.07949 | 5.14171 | 6350 ft | 250 kts | 102° |
| 2026-04-29 18:24 | 60.08046 | 5.17460 | 5911 ft | 237 kts | 67° |
| 2026-04-29 18:24 | 60.08738 | 5.20291 | 5523 ft | 230 kts | 59° |